Time;durP1;ratioP1;P1;durP2;ratioP2;P2;SDS_P1;SDS_P2;PMS_P1;PMS_P2;Temp;Humidity;BMP_temperature;BMP_pressure;BME280_temperature;BME280_humidity;BME280_pressure;Samples;Min_cycle;Max_cycle;Signal;HPM_P1;HPM_P2
2021/07/18 00:02:19;;;;;;;21.23;14.70;;;;;;;;;;5072145;28;20033;-7
2021/07/18 00:04:45;;;;;;;19.13;13.38;;;;;;;;;;5072181;28;20040;-7
2021/07/18 00:07:11;;;;;;;24.80;14.05;;;;;;;;;;5088103;28;20039;-7
2021/07/18 00:09:37;;;;;;;20.17;14.15;;;;;;;;;;5054151;28;20412;-7
2021/07/18 00:12:03;;;;;;;19.55;14.43;;;;;;;;;;5054073;28;20078;-8
2021/07/18 00:14:29;;;;;;;22.23;15.68;;;;;;;;;;5071116;28;20059;-7
2021/07/18 00:16:55;;;;;;;20.42;13.75;;;;;;;;;;5071973;28;20508;-7
2021/07/18 00:19:21;;;;;;;22.70;14.82;;;;;;;;;;5072327;28;20028;-7
2021/07/18 00:21:47;;;;;;;21.65;13.90;;;;;;;;;;5072366;28;20033;-7
2021/07/18 00:24:13;;;;;;;21.02;13.98;;;;;;;;;;5072118;28;20040;-7
2021/07/18 00:26:38;;;;;;;16.38;12.93;;;;;;;;;;5070820;28;20089;-6
2021/07/18 00:29:05;;;;;;;18.15;13.57;;;;;;;;;;5072486;28;20048;-7
2021/07/18 00:31:31;;;;;;;22.20;14.45;;;;;;;;;;5070627;28;20121;-7
2021/07/18 00:34:03;;;;;;;20.52;14.68;;;;;;;;;;5072282;28;20060;-7
2021/07/18 00:36:29;;;;;;;18.63;13.00;;;;;;;;;;5072118;28;20399;-7
2021/07/18 00:38:54;;;;;;;23.00;15.60;;;;;;;;;;5071636;28;20113;-7
2021/07/18 00:41:20;;;;;;;17.10;13.43;;;;;;;;;;5074299;28;20055;-6
2021/07/18 00:43:46;;;;;;;20.52;14.57;;;;;;;;;;5057530;28;20040;-6
2021/07/18 00:46:12;;;;;;;20.38;13.55;;;;;;;;;;5057692;28;20084;-7
2021/07/18 00:48:38;;;;;;;19.70;13.95;;;;;;;;;;5075521;28;20491;-7
2021/07/18 00:51:08;;;;;;;24.10;15.95;;;;;;;;;;5074064;28;20059;-7
2021/07/18 00:53:34;;;;;;;25.45;16.55;;;;;;;;;;5075255;28;20495;-7
2021/07/18 00:55:59;;;;;;;20.60;15.10;;;;;;;;;;5075449;28;20472;-7
2021/07/18 00:58:28;;;;;;;25.70;17.20;;;;;;;;;;5075179;28;20024;-7
2021/07/18 01:00:54;;;;;;;26.98;18.05;;;;;;;;;;5068679;28;20040;-6
2021/07/18 01:03:20;;;;;;;35.05;21.98;;;;;;;;;;5067716;28;20067;-7
2021/07/18 01:05:46;;;;;;;30.77;21.27;;;;;;;;;;5073756;28;20086;-7
2021/07/18 01:08:12;;;;;;;36.65;24.17;;;;;;;;;;5075033;28;20024;-7
2021/07/18 01:10:38;;;;;;;39.45;24.63;;;;;;;;;;5074909;28;20036;-6
2021/07/18 01:13:04;;;;;;;41.53;25.77;;;;;;;;;;5074837;28;20037;-7
2021/07/18 01:15:30;;;;;;;32.55;20.88;;;;;;;;;;5073809;28;20083;-6
2021/07/18 01:17:56;;;;;;;39.42;23.85;;;;;;;;;;5056815;28;20028;-7
2021/07/18 01:20:22;;;;;;;39.08;23.63;;;;;;;;;;5074659;28;20035;-7
2021/07/18 01:22:48;;;;;;;36.15;22.30;;;;;;;;;;5075293;28;20040;-7
2021/07/18 01:25:14;;;;;;;36.33;22.33;;;;;;;;;;5073327;28;20127;-6
2021/07/18 01:27:40;;;;;;;37.20;22.55;;;;;;;;;;5074608;28;20393;-6
2021/07/18 01:30:08;;;;;;;29.92;18.25;;;;;;;;;;5073328;28;20511;-6
2021/07/18 01:32:34;;;;;;;26.73;17.45;;;;;;;;;;5074299;28;20045;-6
2021/07/18 01:35:00;;;;;;;29.55;17.60;;;;;;;;;;5075041;28;20040;-7
2021/07/18 01:37:26;;;;;;;26.48;15.50;;;;;;;;;;5073252;28;20088;-7
2021/07/18 01:39:52;;;;;;;24.42;16.70;;;;;;;;;;5074474;28;20047;-6
2021/07/18 01:42:20;;;;;;;27.30;16.38;;;;;;;;;;5074582;28;20036;-7
2021/07/18 01:44:46;;;;;;;20.58;13.02;;;;;;;;;;5074842;28;20032;-7
2021/07/18 01:47:12;;;;;;;20.83;14.25;;;;;;;;;;5073081;28;20536;-7
2021/07/18 01:49:39;;;;;;;21.40;14.48;;;;;;;;;;5074182;28;20049;-7
2021/07/18 01:52:05;;;;;;;22.92;15.15;;;;;;;;;;5073967;28;20042;-7
2021/07/18 01:54:31;;;;;;;23.60;14.63;;;;;;;;;;5074625;28;20480;-7
2021/07/18 01:56:56;;;;;;;20.90;15.10;;;;;;;;;;5074094;28;20074;-7
2021/07/18 01:59:22;;;;;;;26.52;14.15;;;;;;;;;;5056579;28;20162;-6
2021/07/18 02:01:48;;;;;;;23.73;13.98;;;;;;;;;;5072777;28;20037;-7
2021/07/18 02:04:15;;;;;;;22.85;14.07;;;;;;;;;;5073995;28;20483;-6
2021/07/18 02:06:41;;;;;;;21.48;13.73;;;;;;;;;;5055987;28;20032;-7
2021/07/18 02:09:07;;;;;;;19.38;13.73;;;;;;;;;;5055848;28;20131;-7
2021/07/18 02:11:33;;;;;;;20.75;12.85;;;;;;;;;;5073631;28;20044;-7
2021/07/18 02:14:00;;;;;;;25.73;13.15;;;;;;;;;;5073998;28;20034;-7
2021/07/18 02:16:29;;;;;;;19.75;13.80;;;;;;;;;;5073748;28;20098;-7
2021/07/18 02:18:55;;;;;;;23.73;13.50;;;;;;;;;;5072407;28;20120;-7
2021/07/18 02:21:22;;;;;;;19.95;13.70;;;;;;;;;;5073520;28;20037;-7
2021/07/18 02:23:49;;;;;;;21.65;14.43;;;;;;;;;;5072385;28;20036;-7
2021/07/18 02:26:17;;;;;;;19.02;12.63;;;;;;;;;;5072787;28;20044;-7
2021/07/18 02:28:42;;;;;;;23.35;14.02;;;;;;;;;;5073437;28;20115;-7
2021/07/18 02:31:09;;;;;;;17.75;13.02;;;;;;;;;;5072038;28;20477;-7
2021/07/18 02:33:35;;;;;;;20.77;13.75;;;;;;;;;;5073343;28;20036;-7
2021/07/18 02:36:01;;;;;;;22.35;12.90;;;;;;;;;;5073764;28;20068;-7
2021/07/18 02:38:27;;;;;;;20.65;12.88;;;;;;;;;;5071912;28;20525;-6
2021/07/18 02:40:54;;;;;;;16.52;12.65;;;;;;;;;;5073151;28;20115;-6
2021/07/18 02:43:20;;;;;;;23.45;13.10;;;;;;;;;;5073388;28;20447;-6
2021/07/18 02:45:46;;;;;;;15.18;11.63;;;;;;;;;;5073109;28;20028;-6
2021/07/18 02:48:12;;;;;;;17.73;12.95;;;;;;;;;;5073349;28;20064;-7
2021/07/18 02:50:38;;;;;;;17.38;12.23;;;;;;;;;;5073227;28;20040;-5
2021/07/18 02:53:04;;;;;;;20.45;13.02;;;;;;;;;;5072871;28;20513;-7
2021/07/18 02:55:30;;;;;;;16.58;11.57;;;;;;;;;;5072960;28;20028;-6
2021/07/18 02:57:56;;;;;;;14.55;10.77;;;;;;;;;;5071744;28;20029;-6
2021/07/18 03:00:23;;;;;;;15.30;11.43;;;;;;;;;;5073074;28;20514;-7
2021/07/18 03:02:49;;;;;;;15.57;11.30;;;;;;;;;;5071157;28;20028;-7
2021/07/18 03:05:15;;;;;;;15.02;10.60;;;;;;;;;;5073346;28;20052;-6
2021/07/18 03:07:43;;;;;;;20.27;11.60;;;;;;;;;;5072733;28;20131;-7
2021/07/18 03:10:11;;;;;;;19.70;10.27;;;;;;;;;;5071782;28;20041;-6
2021/07/18 03:12:37;;;;;;;16.75;10.88;;;;;;;;;;5072933;28;20063;-7
2021/07/18 03:15:04;;;;;;;15.82;10.70;;;;;;;;;;5071533;28;20492;-6
2021/07/18 03:17:30;;;;;;;15.02;10.65;;;;;;;;;;5072921;28;20056;-7
2021/07/18 03:19:58;;;;;;;15.90;10.85;;;;;;;;;;5072985;28;20076;-7
2021/07/18 03:22:26;;;;;;;16.00;10.77;;;;;;;;;;5072554;28;20044;-7
2021/07/18 03:24:52;;;;;;;14.68;11.13;;;;;;;;;;5072500;28;20047;-6
2021/07/18 03:27:18;;;;;;;16.13;10.73;;;;;;;;;;5072436;28;20036;-5
2021/07/18 03:29:43;;;;;;;13.05;10.43;;;;;;;;;;5072444;28;20037;-7
2021/07/18 03:32:09;;;;;;;15.48;10.02;;;;;;;;;;5071054;28;20052;-7
2021/07/18 03:34:35;;;;;;;14.13;10.07;;;;;;;;;;5072748;28;20093;-6
2021/07/18 03:37:01;;;;;;;13.63;9.88;;;;;;;;;;5072709;28;20029;-7
2021/07/18 03:39:27;;;;;;;12.48;9.90;;;;;;;;;;5072379;28;20037;-7
2021/07/18 03:41:53;;;;;;;19.30;10.27;;;;;;;;;;5054789;28;20496;-7
2021/07/18 03:44:19;;;;;;;14.43;9.48;;;;;;;;;;5072659;28;20051;-6
2021/07/18 03:46:44;;;;;;;15.02;10.25;;;;;;;;;;5072406;28;20067;-6
2021/07/18 03:49:11;;;;;;;15.15;10.45;;;;;;;;;;5072633;28;20119;-6
2021/07/18 03:51:37;;;;;;;15.40;10.68;;;;;;;;;;5072049;28;20146;-6
2021/07/18 03:54:03;;;;;;;16.27;10.77;;;;;;;;;;5072259;28;20094;-7
2021/07/18 03:56:29;;;;;;;14.23;10.45;;;;;;;;;;5070950;28;20060;-7
2021/07/18 03:58:55;;;;;;;17.20;10.15;;;;;;;;;;5072527;28;20041;-8
2021/07/18 04:01:21;;;;;;;13.45;10.07;;;;;;;;;;5072392;28;20459;-6
2021/07/18 04:03:47;;;;;;;13.25;10.02;;;;;;;;;;5072336;28;20063;-7
2021/07/18 04:06:14;;;;;;;15.27;10.38;;;;;;;;;;5072269;28;20106;-7
2021/07/18 04:08:40;;;;;;;15.38;10.05;;;;;;;;;;5072485;28;20028;-6
2021/07/18 04:11:05;;;;;;;15.68;10.13;;;;;;;;;;5072167;28;20044;-6
2021/07/18 04:13:31;;;;;;;15.05;10.50;;;;;;;;;;5071517;28;20033;-6
2021/07/18 04:15:57;;;;;;;14.95;10.82;;;;;;;;;;5075962;28;20048;-7
2021/07/18 04:18:23;;;;;;;16.73;11.15;;;;;;;;;;5076191;28;20078;-7
2021/07/18 04:20:49;;;;;;;15.02;10.18;;;;;;;;;;5075843;28;20496;-7
2021/07/18 04:23:16;;;;;;;15.73;9.77;;;;;;;;;;5076130;28;20457;-8
2021/07/18 04:25:43;;;;;;;13.25;8.93;;;;;;;;;;5074623;28;20161;-6
2021/07/18 04:28:09;;;;;;;14.98;9.32;;;;;;;;;;5075694;28;20064;-6
2021/07/18 04:30:35;;;;;;;14.25;8.82;;;;;;;;;;5075443;28;20068;-7
2021/07/18 04:33:01;;;;;;;11.48;8.98;;;;;;;;;;5074687;28;20093;-7
2021/07/18 04:35:27;;;;;;;13.77;9.10;;;;;;;;;;5075645;28;20037;-6
2021/07/18 04:37:52;;;;;;;11.75;9.13;;;;;;;;;;5058017;28;20031;-6
2021/07/18 04:40:18;;;;;;;12.35;8.85;;;;;;;;;;5075469;28;20040;-6
2021/07/18 04:42:45;;;;;;;13.82;9.68;;;;;;;;;;5076053;28;20028;-7
2021/07/18 04:45:11;;;;;;;13.00;9.52;;;;;;;;;;5075408;28;20040;-5
2021/07/18 04:47:47;;;;;;;13.63;8.80;;;;;;;;;;5075654;28;20036;-6
2021/07/18 04:50:13;;;;;;;12.05;8.70;;;;;;;;;;5075546;28;20424;-7
2021/07/18 04:52:39;;;;;;;13.98;9.60;;;;;;;;;;5075353;28;20423;-7
2021/07/18 04:55:05;;;;;;;12.55;9.07;;;;;;;;;;5075321;28;20037;-7
2021/07/18 04:57:31;;;;;;;12.15;8.75;;;;;;;;;;5075187;28;20040;-6
2021/07/18 04:59:58;;;;;;;11.80;8.90;;;;;;;;;;5075648;28;20399;-7
2021/07/18 05:02:24;;;;;;;12.10;9.43;;;;;;;;;;5075116;28;20041;-7
2021/07/18 05:04:50;;;;;;;13.48;9.18;;;;;;;;;;5073751;28;20043;-7
2021/07/18 05:07:16;;;;;;;13.93;9.10;;;;;;;;;;5075030;28;20043;-7
2021/07/18 05:09:42;;;;;;;12.55;9.30;;;;;;;;;;5074990;28;20404;-7
2021/07/18 05:12:07;;;;;;;10.80;8.82;;;;;;;;;;5074887;28;20154;-7
2021/07/18 05:14:33;;;;;;;11.90;8.88;;;;;;;;;;5073740;28;20040;-5
2021/07/18 05:16:59;;;;;;;12.88;8.40;;;;;;;;;;5073655;28;20052;-6
2021/07/18 05:19:25;;;;;;;11.70;8.77;;;;;;;;;;5074084;28;20515;-7
2021/07/18 05:21:56;;;;;;;12.77;8.57;;;;;;;;;;5073852;28;20464;-6
2021/07/18 05:24:23;;;;;;;10.63;8.32;;;;;;;;;;5074692;28;20040;-6
2021/07/18 05:26:49;;;;;;;11.60;8.00;;;;;;;;;;5075164;28;20094;-7
2021/07/18 05:29:15;;;;;;;10.30;8.32;;;;;;;;;;5074645;28;20463;-7
2021/07/18 05:31:40;;;;;;;14.38;9.60;;;;;;;;;;5073003;28;20055;-7
2021/07/18 05:34:06;;;;;;;10.73;8.40;;;;;;;;;;5074815;28;20116;-6
2021/07/18 05:36:32;;;;;;;10.57;7.55;;;;;;;;;;5075003;28;20041;-5
2021/07/18 05:38:58;;;;;;;10.88;8.00;;;;;;;;;;5074408;28;20040;-6
2021/07/18 05:41:24;;;;;;;9.15;7.20;;;;;;;;;;5074377;28;20496;-5
2021/07/18 05:43:49;;;;;;;7.85;6.70;;;;;;;;;;5074612;28;20033;-6
2021/07/18 05:46:15;;;;;;;9.73;7.45;;;;;;;;;;5073630;28;20123;-6
2021/07/18 05:48:41;;;;;;;8.85;6.93;;;;;;;;;;5074267;28;20029;-7
2021/07/18 05:51:07;;;;;;;9.15;7.05;;;;;;;;;;5056150;28;20518;-7
2021/07/18 05:53:33;;;;;;;9.18;7.18;;;;;;;;;;5074413;28;20052;-7
2021/07/18 05:55:59;;;;;;;9.60;7.28;;;;;;;;;;5074664;28;20036;-7
2021/07/18 05:58:24;;;;;;;8.93;7.07;;;;;;;;;;5073133;28;20033;-6
2021/07/18 06:00:50;;;;;;;9.57;7.30;;;;;;;;;;5073890;28;20041;-6
2021/07/18 06:03:16;;;;;;;8.60;7.13;;;;;;;;;;5074198;28;20094;-6
2021/07/18 06:05:42;;;;;;;9.45;7.20;;;;;;;;;;5073921;28;20040;-6
2021/07/18 06:08:09;;;;;;;10.75;6.70;;;;;;;;;;5072893;28;20124;-6
2021/07/18 06:10:34;;;;;;;8.70;6.93;;;;;;;;;;5074283;28;20098;-8
2021/07/18 06:13:00;;;;;;;7.57;6.75;;;;;;;;;;5073976;28;20036;-6
2021/07/18 06:15:26;;;;;;;9.52;6.38;;;;;;;;;;5073654;28;20036;-6
2021/07/18 06:17:52;;;;;;;11.27;7.38;;;;;;;;;;5073646;28;20032;-7
2021/07/18 06:20:19;;;;;;;10.38;6.38;;;;;;;;;;5072379;28;20500;-6
2021/07/18 06:22:46;;;;;;;9.38;6.93;;;;;;;;;;5073855;28;20404;-7
2021/07/18 06:25:12;;;;;;;10.93;6.95;;;;;;;;;;5073541;28;20046;-7
2021/07/18 06:27:41;;;;;;;9.50;6.53;;;;;;;;;;5073465;28;20047;-7
2021/07/18 06:30:07;;;;;;;9.75;6.85;;;;;;;;;;5073746;28;20154;-7
2021/07/18 06:32:33;;;;;;;8.10;6.55;;;;;;;;;;5073028;28;20054;-6
2021/07/18 06:34:59;;;;;;;9.35;7.45;;;;;;;;;;5073313;28;20471;-7
2021/07/18 06:37:25;;;;;;;9.70;6.80;;;;;;;;;;5072606;28;20043;-7
2021/07/18 06:39:51;;;;;;;12.85;7.00;;;;;;;;;;5073594;28;20087;-7
2021/07/18 06:42:18;;;;;;;7.35;6.53;;;;;;;;;;5073109;28;20515;-7
2021/07/18 06:44:44;;;;;;;8.88;6.65;;;;;;;;;;5073159;28;20041;-7
2021/07/18 06:47:10;;;;;;;10.18;7.25;;;;;;;;;;5073382;28;20085;-5
2021/07/18 06:49:36;;;;;;;12.00;6.72;;;;;;;;;;5072976;28;20113;-5
2021/07/18 06:52:02;;;;;;;11.15;6.75;;;;;;;;;;5072948;28;20086;-5
2021/07/18 06:54:29;;;;;;;9.40;6.97;;;;;;;;;;5073498;28;20032;-5
2021/07/18 06:56:55;;;;;;;9.90;7.10;;;;;;;;;;5073192;28;20040;-5
2021/07/18 06:59:21;;;;;;;10.57;6.60;;;;;;;;;;5073149;28;20042;-6
2021/07/18 07:01:47;;;;;;;8.25;6.82;;;;;;;;;;5072820;28;20409;-6
2021/07/18 07:04:14;;;;;;;8.32;7.32;;;;;;;;;;5073073;28;20037;-6
2021/07/18 07:06:40;;;;;;;12.07;7.45;;;;;;;;;;5072850;28;20527;-6
2021/07/18 07:09:06;;;;;;;9.25;7.97;;;;;;;;;;5072049;28;20097;-6
2021/07/18 07:11:32;;;;;;;9.57;6.82;;;;;;;;;;5072616;28;20446;-6
2021/07/18 07:13:58;;;;;;;9.98;7.60;;;;;;;;;;5054798;28;20111;-6
2021/07/18 07:16:23;;;;;;;8.82;7.72;;;;;;;;;;5072653;28;20127;-6
2021/07/18 07:18:49;;;;;;;11.00;7.95;;;;;;;;;;5054725;28;20036;-6
2021/07/18 07:21:15;;;;;;;9.32;7.47;;;;;;;;;;5072557;28;20037;-6
2021/07/18 07:23:43;;;;;;;10.10;7.85;;;;;;;;;;5071371;28;20040;-6
2021/07/18 07:26:10;;;;;;;9.80;7.38;;;;;;;;;;5072506;28;20119;-6
2021/07/18 07:28:36;;;;;;;9.75;7.38;;;;;;;;;;5072772;28;20064;-7
2021/07/18 07:31:02;;;;;;;12.07;7.90;;;;;;;;;;5072209;28;20483;-7
2021/07/18 07:33:33;;;;;;;11.18;7.22;;;;;;;;;;5071241;28;20032;-6
2021/07/18 07:35:59;;;;;;;9.20;6.80;;;;;;;;;;5072514;28;20028;-7
2021/07/18 07:38:25;;;;;;;9.07;7.72;;;;;;;;;;5072773;28;20587;-7
2021/07/18 07:40:51;;;;;;;8.80;7.10;;;;;;;;;;5054711;28;20056;-8
2021/07/18 07:43:17;;;;;;;10.85;7.82;;;;;;;;;;5072345;28;20055;-6
2021/07/18 07:45:42;;;;;;;10.82;7.70;;;;;;;;;;5072643;28;20063;-6
2021/07/18 07:48:09;;;;;;;13.43;7.65;;;;;;;;;;5072883;28;20036;-5
2021/07/18 07:50:34;;;;;;;10.25;7.60;;;;;;;;;;5076444;28;20041;-6
2021/07/18 07:53:02;;;;;;;12.25;8.20;;;;;;;;;;5076314;28;20036;-6
2021/07/18 07:55:29;;;;;;;9.95;8.13;;;;;;;;;;5075210;28;20036;-7
2021/07/18 07:57:55;;;;;;;10.35;7.30;;;;;;;;;;5075359;28;20045;-7
2021/07/18 08:00:22;;;;;;;9.95;7.68;;;;;;;;;;5076217;28;20032;-7
2021/07/18 08:02:49;;;;;;;8.45;7.20;;;;;;;;;;5076070;28;20040;-7
2021/07/18 08:05:16;;;;;;;10.20;8.18;;;;;;;;;;5076647;28;20036;-7
2021/07/18 08:07:42;;;;;;;9.40;7.60;;;;;;;;;;5075249;28;20550;-7
2021/07/18 08:10:10;;;;;;;9.68;8.27;;;;;;;;;;5076529;28;20048;-7
2021/07/18 08:12:36;;;;;;;13.27;7.22;;;;;;;;;;5075914;28;20028;-7
2021/07/18 08:15:03;;;;;;;10.90;8.38;;;;;;;;;;5076016;28;20028;-7
2021/07/18 08:17:29;;;;;;;10.40;7.47;;;;;;;;;;5076147;28;20435;-7
2021/07/18 08:19:55;;;;;;;10.13;8.30;;;;;;;;;;5075192;28;20032;-7
2021/07/18 08:22:21;;;;;;;9.70;7.80;;;;;;;;;;5074647;28;20048;-7
2021/07/18 08:24:48;;;;;;;8.73;7.82;;;;;;;;;;5074580;28;20040;-7
2021/07/18 08:27:14;;;;;;;10.70;7.90;;;;;;;;;;5075782;28;20498;-7
2021/07/18 08:29:39;;;;;;;9.45;8.20;;;;;;;;;;5076214;28;20125;-7
2021/07/18 08:32:06;;;;;;;11.43;7.55;;;;;;;;;;5074202;28;20052;-6
2021/07/18 08:34:32;;;;;;;10.65;7.68;;;;;;;;;;5076044;28;20097;-7
2021/07/18 08:36:58;;;;;;;12.80;8.02;;;;;;;;;;5075493;28;20434;-7
2021/07/18 08:39:24;;;;;;;8.52;7.30;;;;;;;;;;5072724;28;20396;-6
2021/07/18 08:41:53;;;;;;;12.60;8.82;;;;;;;;;;5073434;28;20568;-7
2021/07/18 08:44:20;;;;;;;9.95;8.05;;;;;;;;;;5072142;28;20483;-13
2021/07/18 08:46:46;;;;;;;11.57;8.50;;;;;;;;;;5074777;28;20067;-9
2021/07/18 08:49:12;;;;;;;11.13;8.57;;;;;;;;;;5074293;28;20499;-11
2021/07/18 08:51:39;;;;;;;13.05;8.32;;;;;;;;;;5067740;28;20366;-7
2021/07/18 08:54:05;;;;;;;10.75;7.35;;;;;;;;;;5059004;28;20029;-7
2021/07/18 08:56:33;;;;;;;9.73;8.27;;;;;;;;;;5071600;28;20086;-7
2021/07/18 08:59:03;;;;;;;15.02;8.25;;;;;;;;;;5068905;28;20119;-12
2021/07/18 09:01:33;;;;;;;11.25;7.90;;;;;;;;;;5074695;28;20040;-9
2021/07/18 09:04:01;;;;;;;15.93;7.95;;;;;;;;;;5083367;28;20036;-8
2021/07/18 09:06:42;;;;;;;10.95;8.32;;;;;;;;;;5087578;28;20041;-9
2021/07/18 09:09:09;;;;;;;18.25;6.93;;;;;;;;;;5077651;28;20462;-7
2021/07/18 09:11:35;;;;;;;13.30;8.52;;;;;;;;;;5069743;28;20037;-8
2021/07/18 09:14:06;;;;;;;12.88;8.55;;;;;;;;;;5076089;28;20036;-8
2021/07/18 09:16:34;;;;;;;11.38;9.05;;;;;;;;;;5066495;28;20040;-7
2021/07/18 09:19:18;;;;;;;16.15;8.60;;;;;;;;;;5084067;28;20028;-8
2021/07/18 09:22:02;;;;;;;14.52;7.78;;;;;;;;;;5077375;28;20032;-8
2021/07/18 09:24:34;;;;;;;13.35;8.40;;;;;;;;;;5078101;28;20427;-8
2021/07/18 09:27:18;;;;;;;18.67;8.38;;;;;;;;;;5087860;28;20123;-8
2021/07/18 09:29:55;;;;;;;10.05;8.82;;;;;;;;;;5082707;28;20384;-7
2021/07/18 09:32:23;;;;;;;12.52;9.52;;;;;;;;;;5080632;28;20048;-7
2021/07/18 09:34:54;;;;;;;10.82;9.73;;;;;;;;;;5079102;28;20486;-7
2021/07/18 09:37:26;;;;;;;14.45;9.20;;;;;;;;;;5098357;28;20407;-8
2021/07/18 09:39:53;;;;;;;12.60;9.55;;;;;;;;;;5090304;28;20035;-8
2021/07/18 09:42:26;;;;;;;11.75;8.35;;;;;;;;;;5084239;28;20063;-8
2021/07/18 09:44:52;;;;;;;17.75;7.70;;;;;;;;;;5084432;28;20040;-7
2021/07/18 09:47:19;;;;;;;11.43;8.75;;;;;;;;;;5077872;28;20040;-7
2021/07/18 09:49:46;;;;;;;13.43;9.07;;;;;;;;;;5080103;28;20046;-6
2021/07/18 09:52:17;;;;;;;13.00;10.00;;;;;;;;;;5080195;28;20029;-7
2021/07/18 09:54:43;;;;;;;12.52;9.05;;;;;;;;;;5085599;28;20036;-8
2021/07/18 09:57:10;;;;;;;11.27;8.73;;;;;;;;;;5083951;28;20344;-6
2021/07/18 09:59:41;;;;;;;12.30;8.50;;;;;;;;;;5080101;28;20031;-7
2021/07/18 10:02:08;;;;;;;13.27;8.35;;;;;;;;;;5074217;28;20077;-7
2021/07/18 10:04:38;;;;;;;12.85;8.23;;;;;;;;;;5076981;28;20036;-7
2021/07/18 10:07:06;;;;;;;16.20;7.97;;;;;;;;;;5078505;28;20047;-7
2021/07/18 10:09:34;;;;;;;11.98;8.82;;;;;;;;;;5075176;28;20708;-8
2021/07/18 10:12:01;;;;;;;12.35;9.63;;;;;;;;;;5070110;28;20109;-7
2021/07/18 10:14:27;;;;;;;16.15;8.65;;;;;;;;;;5076616;28;20452;-8
2021/07/18 10:16:55;;;;;;;13.82;8.65;;;;;;;;;;5080902;28;20135;-8
2021/07/18 10:19:23;;;;;;;12.35;8.95;;;;;;;;;;5089541;28;20028;-9
2021/07/18 10:21:50;;;;;;;13.13;7.40;;;;;;;;;;5087951;28;20380;-7
2021/07/18 10:24:17;;;;;;;16.50;7.70;;;;;;;;;;5089956;28;20036;-8
2021/07/18 10:26:44;;;;;;;16.40;7.43;;;;;;;;;;5073808;28;20032;-7
2021/07/18 10:29:12;;;;;;;13.13;8.55;;;;;;;;;;5071289;28;20089;-7
2021/07/18 10:31:51;;;;;;;13.57;8.82;;;;;;;;;;5079123;28;20066;-7
2021/07/18 10:34:18;;;;;;;12.18;8.68;;;;;;;;;;5087553;28;20028;-8
2021/07/18 10:36:45;;;;;;;10.75;8.68;;;;;;;;;;5074556;28;20036;-8
2021/07/18 10:39:24;;;;;;;13.70;8.52;;;;;;;;;;5072145;28;20039;-8
2021/07/18 10:41:51;;;;;;;14.73;8.30;;;;;;;;;;5076993;28;20032;-8
2021/07/18 10:44:18;;;;;;;13.55;9.35;;;;;;;;;;5064564;28;20047;-7
2021/07/18 10:46:48;;;;;;;17.77;8.30;;;;;;;;;;5072396;28;20498;-7
2021/07/18 10:49:16;;;;;;;13.02;8.70;;;;;;;;;;5092984;28;20109;-8
2021/07/18 10:51:51;;;;;;;15.63;9.18;;;;;;;;;;5073581;28;20418;-7
2021/07/18 10:54:21;;;;;;;12.45;6.65;;;;;;;;;;5070705;28;20023;-6
2021/07/18 10:56:49;;;;;;;12.52;8.70;;;;;;;;;;5089578;28;20028;-7
2021/07/18 10:59:34;;;;;;;14.50;9.77;;;;;;;;;;5092857;28;20035;-7
2021/07/18 11:02:08;;;;;;;15.52;9.90;;;;;;;;;;5073049;28;20071;-7
2021/07/18 11:04:51;;;;;;;14.70;9.50;;;;;;;;;;5073390;28;20507;-7
2021/07/18 11:07:20;;;;;;;13.52;9.23;;;;;;;;;;5070754;28;20097;-6
2021/07/18 11:09:56;;;;;;;12.68;9.07;;;;;;;;;;5069501;28;20518;-6
2021/07/18 11:12:42;;;;;;;17.50;9.30;;;;;;;;;;5082814;28;20039;-6
2021/07/18 11:15:27;;;;;;;12.88;6.75;;;;;;;;;;5071638;28;20047;-6
2021/07/18 11:18:02;;;;;;;12.63;9.13;;;;;;;;;;5076930;28;20063;-6
2021/07/18 11:20:48;;;;;;;14.05;8.57;;;;;;;;;;5078531;28;20039;-8
2021/07/18 11:23:34;;;;;;;11.95;9.57;;;;;;;;;;5090656;28;20137;-8
2021/07/18 11:26:03;;;;;;;16.42;8.60;;;;;;;;;;5087162;28;20119;-6
2021/07/18 11:31:21;;;;;;;12.32;8.32;;;;;;;;;;5052971;28;20110;-7
2021/07/18 11:33:55;;;;;;;16.30;7.55;;;;;;;;;;5088640;28;20059;-7
2021/07/18 11:36:22;;;;;;;12.25;7.28;;;;;;;;;;5072081;28;20036;-7
2021/07/18 11:38:49;;;;;;;11.52;7.32;;;;;;;;;;5088234;28;20032;-6
2021/07/18 11:41:22;;;;;;;11.73;10.00;;;;;;;;;;5091545;28;20101;-6
2021/07/18 11:43:50;;;;;;;19.48;7.65;;;;;;;;;;5089182;28;20036;-7
2021/07/18 11:46:17;;;;;;;11.75;9.93;;;;;;;;;;5091550;28;20028;-7
2021/07/18 11:48:43;;;;;;;18.65;9.80;;;;;;;;;;5091524;28;20032;-6
2021/07/18 11:51:10;;;;;;;14.90;7.88;;;;;;;;;;5090474;28;20028;-8
2021/07/18 11:53:42;;;;;;;14.02;9.60;;;;;;;;;;5089481;28;20471;-7
2021/07/18 11:56:16;;;;;;;11.82;9.52;;;;;;;;;;5068872;28;20051;-7
2021/07/18 11:58:42;;;;;;;11.98;8.88;;;;;;;;;;5086211;28;20119;-7
2021/07/18 12:01:13;;;;;;;20.27;10.25;;;;;;;;;;5090242;28;20051;-6
2021/07/18 12:03:42;;;;;;;13.95;10.40;;;;;;;;;;5092363;28;20032;-8
2021/07/18 12:06:11;;;;;;;15.55;9.60;;;;;;;;;;5084420;28;20042;-8
2021/07/18 12:08:41;;;;;;;13.30;9.63;;;;;;;;;;5090242;28;20038;-8
2021/07/18 12:11:11;;;;;;;12.77;8.65;;;;;;;;;;5091513;28;20047;-8
2021/07/18 12:13:50;;;;;;;13.80;9.27;;;;;;;;;;5091291;28;20032;-7
2021/07/18 12:16:25;;;;;;;15.48;10.80;;;;;;;;;;5089412;28;20510;-9
2021/07/18 12:18:58;;;;;;;14.30;10.50;;;;;;;;;;5084735;28;20043;-7
2021/07/18 12:21:34;;;;;;;14.25;10.20;;;;;;;;;;5083170;28;20433;-9
2021/07/18 12:24:25;;;;;;;14.30;10.38;;;;;;;;;;5085607;28;20085;-10
2021/07/18 12:27:00;;;;;;;13.55;10.52;;;;;;;;;;5090254;28;20036;-7
2021/07/18 12:29:38;;;;;;;15.38;10.88;;;;;;;;;;5090375;28;20553;-8
2021/07/18 12:32:09;;;;;;;16.67;10.45;;;;;;;;;;5082417;28;20052;-7
2021/07/18 12:34:37;;;;;;;15.35;10.77;;;;;;;;;;5090247;28;20399;-8
2021/07/18 12:37:08;;;;;;;13.73;9.38;;;;;;;;;;5095408;28;20044;-8
2021/07/18 12:39:44;;;;;;;10.85;8.15;;;;;;;;;;5094257;28;20046;-11
2021/07/18 12:42:19;;;;;;;14.20;7.63;;;;;;;;;;5095471;28;20071;-7
2021/07/18 12:45:11;;;;;;;13.05;9.35;;;;;;;;;;5095671;28;20031;-9
2021/07/18 12:47:40;;;;;;;14.07;11.38;;;;;;;;;;5069786;28;20040;-7
2021/07/18 12:50:15;;;;;;;14.50;11.60;;;;;;;;;;5093158;28;20044;-8
2021/07/18 12:52:43;;;;;;;18.25;11.27;;;;;;;;;;5095384;28;20040;-9
2021/07/18 12:55:12;;;;;;;13.20;11.25;;;;;;;;;;5093726;28;20509;-10
2021/07/18 12:57:39;;;;;;;19.20;11.90;;;;;;;;;;5093520;28;20043;-9
2021/07/18 13:00:07;;;;;;;17.27;11.38;;;;;;;;;;5093031;28;20042;-9
2021/07/18 13:02:33;;;;;;;15.05;11.48;;;;;;;;;;5111548;28;20085;-7
2021/07/18 13:05:03;;;;;;;14.20;10.75;;;;;;;;;;5111001;28;20364;-9
2021/07/18 13:07:31;;;;;;;15.13;11.00;;;;;;;;;;5080626;28;20392;-9
2021/07/18 13:10:19;;;;;;;14.02;11.60;;;;;;;;;;5072560;28;20037;-8
2021/07/18 13:13:01;;;;;;;16.90;11.20;;;;;;;;;;5089803;28;20031;-7
2021/07/18 13:15:32;;;;;;;16.88;11.25;;;;;;;;;;5092031;28;20028;-8
2021/07/18 13:18:01;;;;;;;16.52;9.50;;;;;;;;;;5086679;28;20067;-7
2021/07/18 13:20:30;;;;;;;14.50;11.45;;;;;;;;;;5087214;28;20039;-7
2021/07/18 13:23:04;;;;;;;15.93;10.95;;;;;;;;;;5093089;28;20464;-7
2021/07/18 13:25:37;;;;;;;21.90;11.77;;;;;;;;;;5092561;28;20051;-10
2021/07/18 13:28:10;;;;;;;18.17;11.07;;;;;;;;;;5092400;28;20491;-8
2021/07/18 13:30:40;;;;;;;14.43;11.32;;;;;;;;;;5092796;28;20570;-8
2021/07/18 13:33:09;;;;;;;15.13;10.95;;;;;;;;;;5094092;28;20105;-7
2021/07/18 13:35:47;;;;;;;14.65;11.57;;;;;;;;;;5092129;28;20036;-7
2021/07/18 13:38:23;;;;;;;13.75;10.95;;;;;;;;;;5092606;28;20047;-7
2021/07/18 13:40:52;;;;;;;15.65;11.40;;;;;;;;;;5091797;28;20059;-7
2021/07/18 13:43:25;;;;;;;19.33;11.80;;;;;;;;;;5093303;28;20573;-7
2021/07/18 13:45:57;;;;;;;20.48;12.18;;;;;;;;;;5072262;28;20135;-8
2021/07/18 13:48:25;;;;;;;19.90;11.60;;;;;;;;;;5092563;28;20444;-8
2021/07/18 13:50:54;;;;;;;20.60;12.77;;;;;;;;;;5097597;28;20036;-7
2021/07/18 13:53:21;;;;;;;22.45;12.77;;;;;;;;;;5089309;28;20037;-7
2021/07/18 13:55:50;;;;;;;14.60;10.02;;;;;;;;;;5086444;28;20040;-7
2021/07/18 13:58:20;;;;;;;17.17;12.45;;;;;;;;;;5092907;28;20670;-8
2021/07/18 14:00:49;;;;;;;20.73;10.35;;;;;;;;;;5092849;28;20039;-8
2021/07/18 14:03:18;;;;;;;17.58;10.95;;;;;;;;;;5092467;28;20024;-9
2021/07/18 14:05:48;;;;;;;21.35;12.02;;;;;;;;;;5087269;28;20032;-6
2021/07/18 14:08:19;;;;;;;20.73;8.57;;;;;;;;;;5091593;28;20087;-7
2021/07/18 14:10:47;;;;;;;18.20;13.07;;;;;;;;;;5093689;28;20044;-7
2021/07/18 14:13:14;;;;;;;15.95;10.63;;;;;;;;;;5088819;28;20407;-7
2021/07/18 14:15:43;;;;;;;22.23;9.10;;;;;;;;;;5093790;28;20474;-7
2021/07/18 14:18:10;;;;;;;22.80;11.80;;;;;;;;;;5091876;28;20495;-6
2021/07/18 14:20:38;;;;;;;19.63;13.30;;;;;;;;;;5090770;28;20036;-6
2021/07/18 14:23:12;;;;;;;17.25;13.02;;;;;;;;;;5080474;28;20116;-6
2021/07/18 14:25:41;;;;;;;18.73;12.52;;;;;;;;;;5092494;28;20032;-7
2021/07/18 14:28:08;;;;;;;22.15;12.27;;;;;;;;;;5092063;28;20055;-7
2021/07/18 14:30:37;;;;;;;19.55;12.00;;;;;;;;;;5092794;28;20492;-7
2021/07/18 14:33:07;;;;;;;19.10;13.15;;;;;;;;;;5089868;28;20081;-10
2021/07/18 14:35:34;;;;;;;15.50;10.98;;;;;;;;;;5092371;28;20076;-7
2021/07/18 14:38:00;;;;;;;23.25;13.85;;;;;;;;;;5092116;28;20498;-7
2021/07/18 14:40:28;;;;;;;20.10;13.50;;;;;;;;;;5083134;28;20108;-6
2021/07/18 14:42:55;;;;;;;19.83;12.13;;;;;;;;;;5090513;28;20040;-7
2021/07/18 14:45:21;;;;;;;15.85;12.20;;;;;;;;;;5072440;28;20031;-7
2021/07/18 14:47:49;;;;;;;16.73;11.70;;;;;;;;;;5091214;28;20036;-7